sensor_id;sensor_type;location;lat;lon;timestamp;P1;durP1;ratioP1;P2;durP2;ratioP2
71910;SDS011;59783;52.232;5.170;2022-12-29T00:01:22;23.60;;;21.50;;
71910;SDS011;59783;52.232;5.170;2022-12-29T00:03:48;23.60;;;21.50;;
71910;SDS011;59783;52.232;5.170;2022-12-29T00:06:13;26.65;;;24.35;;
71910;SDS011;59783;52.232;5.170;2022-12-29T00:08:38;24.15;;;22.02;;
71910;SDS011;59783;52.232;5.170;2022-12-29T00:11:05;22.55;;;20.52;;
71910;SDS011;59783;52.232;5.170;2022-12-29T00:13:30;23.02;;;20.90;;
71910;SDS011;59783;52.232;5.170;2022-12-29T00:16:14;22.48;;;20.45;;
71910;SDS011;59783;52.232;5.170;2022-12-29T00:18:39;21.97;;;19.97;;
71910;SDS011;59783;52.232;5.170;2022-12-29T00:21:05;21.50;;;19.53;;
71910;SDS011;59783;52.232;5.170;2022-12-29T00:23:48;22.90;;;20.88;;
71910;SDS011;59783;52.232;5.170;2022-12-29T00:26:32;24.85;;;22.73;;
71910;SDS011;59783;52.232;5.170;2022-12-29T00:29:16;20.95;;;19.05;;
71910;SDS011;59783;52.232;5.170;2022-12-29T00:32:00;19.85;;;18.02;;
71910;SDS011;59783;52.232;5.170;2022-12-29T00:34:44;22.35;;;20.35;;
71910;SDS011;59783;52.232;5.170;2022-12-29T00:37:28;20.25;;;18.42;;
71910;SDS011;59783;52.232;5.170;2022-12-29T00:40:12;20.60;;;18.73;;
71910;SDS011;59783;52.232;5.170;2022-12-29T00:42:56;19.60;;;17.80;;
71910;SDS011;59783;52.232;5.170;2022-12-29T00:45:43;22.92;;;20.90;;
71910;SDS011;59783;52.232;5.170;2022-12-29T00:48:08;20.05;;;18.25;;
71910;SDS011;59783;52.232;5.170;2022-12-29T00:50:33;19.40;;;17.60;;
71910;SDS011;59783;52.232;5.170;2022-12-29T00:52:58;19.80;;;18.00;;
71910;SDS011;59783;52.232;5.170;2022-12-29T00:55:23;19.10;;;17.33;;
71910;SDS011;59783;52.232;5.170;2022-12-29T00:57:49;20.03;;;18.23;;
71910;SDS011;59783;52.232;5.170;2022-12-29T01:00:14;18.27;;;16.57;;
71910;SDS011;59783;52.232;5.170;2022-12-29T01:02:39;18.52;;;16.83;;
71910;SDS011;59783;52.232;5.170;2022-12-29T01:05:04;18.50;;;16.80;;
71910;SDS011;59783;52.232;5.170;2022-12-29T01:07:29;20.67;;;18.83;;
71910;SDS011;59783;52.232;5.170;2022-12-29T01:09:55;20.03;;;18.23;;
71910;SDS011;59783;52.232;5.170;2022-12-29T01:12:35;20.40;;;18.50;;
71910;SDS011;59783;52.232;5.170;2022-12-29T01:15:11;20.77;;;18.88;;
71910;SDS011;59783;52.232;5.170;2022-12-29T01:17:36;21.35;;;19.45;;
71910;SDS011;59783;52.232;5.170;2022-12-29T01:20:02;24.40;;;22.30;;
71910;SDS011;59783;52.232;5.170;2022-12-29T01:22:27;24.55;;;22.35;;
71910;SDS011;59783;52.232;5.170;2022-12-29T01:24:53;24.00;;;21.90;;
71910;SDS011;59783;52.232;5.170;2022-12-29T01:27:18;24.17;;;22.00;;
71910;SDS011;59783;52.232;5.170;2022-12-29T01:29:43;23.70;;;21.60;;
71910;SDS011;59783;52.232;5.170;2022-12-29T01:32:08;27.83;;;25.53;;
71910;SDS011;59783;52.232;5.170;2022-12-29T01:34:33;23.17;;;21.07;;
71910;SDS011;59783;52.232;5.170;2022-12-29T01:36:58;26.53;;;24.23;;
71910;SDS011;59783;52.232;5.170;2022-12-29T01:39:24;25.70;;;23.50;;
71910;SDS011;59783;52.232;5.170;2022-12-29T01:41:49;24.37;;;22.23;;
71910;SDS011;59783;52.232;5.170;2022-12-29T01:46:58;27.27;;;24.98;;
71910;SDS011;59783;52.232;5.170;2022-12-29T01:49:24;26.88;;;24.58;;
71910;SDS011;59783;52.232;5.170;2022-12-29T01:51:52;25.17;;;22.98;;
71910;SDS011;59783;52.232;5.170;2022-12-29T01:54:20;24.45;;;22.35;;
71910;SDS011;59783;52.232;5.170;2022-12-29T01:56:47;25.50;;;23.33;;
71910;SDS011;59783;52.232;5.170;2022-12-29T01:59:15;24.50;;;22.40;;
71910;SDS011;59783;52.232;5.170;2022-12-29T02:01:42;24.67;;;22.58;;
71910;SDS011;59783;52.232;5.170;2022-12-29T02:04:08;23.83;;;21.73;;
71910;SDS011;59783;52.232;5.170;2022-12-29T02:09:00;23.88;;;21.77;;
71910;SDS011;59783;52.232;5.170;2022-12-29T02:11:25;23.50;;;21.40;;
71910;SDS011;59783;52.232;5.170;2022-12-29T02:13:51;23.98;;;21.88;;
71910;SDS011;59783;52.232;5.170;2022-12-29T02:18:54;24.80;;;22.60;;
71910;SDS011;59783;52.232;5.170;2022-12-29T02:24:11;22.50;;;20.50;;
71910;SDS011;59783;52.232;5.170;2022-12-29T02:26:47;22.92;;;20.90;;
71910;SDS011;59783;52.232;5.170;2022-12-29T02:29:19;25.13;;;22.98;;
71910;SDS011;59783;52.232;5.170;2022-12-29T02:31:46;23.20;;;21.20;;
71910;SDS011;59783;52.232;5.170;2022-12-29T02:41:54;24.25;;;22.17;;
71910;SDS011;59783;52.232;5.170;2022-12-29T02:46:54;21.08;;;19.15;;
71910;SDS011;59783;52.232;5.170;2022-12-29T02:51:55;22.05;;;20.15;;
71910;SDS011;59783;52.232;5.170;2022-12-29T02:54:23;20.80;;;18.90;;
71910;SDS011;59783;52.232;5.170;2022-12-29T02:57:13;21.08;;;19.17;;
71910;SDS011;59783;52.232;5.170;2022-12-29T02:59:39;21.63;;;19.70;;
71910;SDS011;59783;52.232;5.170;2022-12-29T03:02:14;21.77;;;19.88;;
71910;SDS011;59783;52.232;5.170;2022-12-29T03:07:19;21.05;;;19.15;;
71910;SDS011;59783;52.232;5.170;2022-12-29T03:12:54;20.25;;;18.35;;
71910;SDS011;59783;52.232;5.170;2022-12-29T03:15:42;18.80;;;17.10;;
71910;SDS011;59783;52.232;5.170;2022-12-29T03:21:14;21.10;;;19.25;;
71910;SDS011;59783;52.232;5.170;2022-12-29T03:23:41;18.63;;;16.92;;
71910;SDS011;59783;52.232;5.170;2022-12-29T03:26:08;23.98;;;21.88;;
71910;SDS011;59783;52.232;5.170;2022-12-29T03:28:36;18.77;;;17.05;;
71910;SDS011;59783;52.232;5.170;2022-12-29T03:31:03;17.63;;;16.02;;
71910;SDS011;59783;52.232;5.170;2022-12-29T03:33:28;19.38;;;17.63;;
71910;SDS011;59783;52.232;5.170;2022-12-29T03:35:56;18.98;;;17.20;;
71910;SDS011;59783;52.232;5.170;2022-12-29T03:38:27;18.48;;;16.77;;
71910;SDS011;59783;52.232;5.170;2022-12-29T03:40:56;19.67;;;17.88;;
71910;SDS011;59783;52.232;5.170;2022-12-29T03:43:22;18.48;;;16.77;;
71910;SDS011;59783;52.232;5.170;2022-12-29T03:45:47;19.00;;;17.30;;
71910;SDS011;59783;52.232;5.170;2022-12-29T03:48:13;18.53;;;16.83;;
71910;SDS011;59783;52.232;5.170;2022-12-29T03:50:38;18.48;;;16.77;;
71910;SDS011;59783;52.232;5.170;2022-12-29T03:53:03;18.37;;;16.67;;
71910;SDS011;59783;52.232;5.170;2022-12-29T03:55:28;17.77;;;16.13;;
71910;SDS011;59783;52.232;5.170;2022-12-29T03:57:53;18.53;;;16.83;;
71910;SDS011;59783;52.232;5.170;2022-12-29T04:00:19;19.53;;;17.77;;
71910;SDS011;59783;52.232;5.170;2022-12-29T04:02:44;19.13;;;17.42;;
71910;SDS011;59783;52.232;5.170;2022-12-29T04:05:09;18.13;;;16.43;;
71910;SDS011;59783;52.232;5.170;2022-12-29T04:07:34;19.20;;;17.50;;
71910;SDS011;59783;52.232;5.170;2022-12-29T04:09:59;19.97;;;18.17;;
71910;SDS011;59783;52.232;5.170;2022-12-29T04:12:25;18.77;;;17.07;;
71910;SDS011;59783;52.232;5.170;2022-12-29T04:14:50;18.53;;;16.83;;
71910;SDS011;59783;52.232;5.170;2022-12-29T04:17:15;19.37;;;17.67;;
71910;SDS011;59783;52.232;5.170;2022-12-29T04:19:40;19.63;;;17.83;;
71910;SDS011;59783;52.232;5.170;2022-12-29T04:22:05;18.43;;;16.73;;
71910;SDS011;59783;52.232;5.170;2022-12-29T04:24:31;18.30;;;16.60;;
71910;SDS011;59783;52.232;5.170;2022-12-29T04:26:56;17.67;;;16.07;;
71910;SDS011;59783;52.232;5.170;2022-12-29T04:29:21;17.63;;;16.03;;
71910;SDS011;59783;52.232;5.170;2022-12-29T04:31:46;17.37;;;15.77;;
71910;SDS011;59783;52.232;5.170;2022-12-29T04:34:11;19.40;;;17.70;;
71910;SDS011;59783;52.232;5.170;2022-12-29T04:36:36;17.50;;;15.90;;
71910;SDS011;59783;52.232;5.170;2022-12-29T04:39:02;15.83;;;14.33;;
71910;SDS011;59783;52.232;5.170;2022-12-29T04:41:27;16.83;;;15.30;;
71910;SDS011;59783;52.232;5.170;2022-12-29T04:43:52;17.63;;;16.03;;
71910;SDS011;59783;52.232;5.170;2022-12-29T04:46:17;15.83;;;14.33;;
71910;SDS011;59783;52.232;5.170;2022-12-29T04:48:43;15.18;;;13.77;;
71910;SDS011;59783;52.232;5.170;2022-12-29T04:51:08;15.17;;;13.77;;
71910;SDS011;59783;52.232;5.170;2022-12-29T04:53:33;15.27;;;13.87;;
71910;SDS011;59783;52.232;5.170;2022-12-29T04:55:58;16.80;;;15.30;;
71910;SDS011;59783;52.232;5.170;2022-12-29T04:58:23;17.00;;;15.43;;
71910;SDS011;59783;52.232;5.170;2022-12-29T05:00:49;14.97;;;13.57;;
71910;SDS011;59783;52.232;5.170;2022-12-29T05:03:15;16.67;;;15.18;;
71910;SDS011;59783;52.232;5.170;2022-12-29T05:05:40;16.23;;;14.73;;
71910;SDS011;59783;52.232;5.170;2022-12-29T05:08:05;16.27;;;14.77;;
71910;SDS011;59783;52.232;5.170;2022-12-29T05:10:30;16.90;;;15.40;;
71910;SDS011;59783;52.232;5.170;2022-12-29T05:12:56;16.87;;;15.30;;
71910;SDS011;59783;52.232;5.170;2022-12-29T05:15:22;17.92;;;16.30;;
71910;SDS011;59783;52.232;5.170;2022-12-29T05:17:47;17.13;;;15.53;;
71910;SDS011;59783;52.232;5.170;2022-12-29T05:20:12;15.90;;;14.40;;
71910;SDS011;59783;52.232;5.170;2022-12-29T05:22:38;16.93;;;15.33;;
71910;SDS011;59783;52.232;5.170;2022-12-29T05:25:03;16.77;;;15.17;;
71910;SDS011;59783;52.232;5.170;2022-12-29T05:27:28;16.60;;;15.00;;
71910;SDS011;59783;52.232;5.170;2022-12-29T05:29:53;16.90;;;15.30;;
71910;SDS011;59783;52.232;5.170;2022-12-29T05:32:19;16.27;;;14.77;;
71910;SDS011;59783;52.232;5.170;2022-12-29T05:34:44;17.20;;;15.60;;
71910;SDS011;59783;52.232;5.170;2022-12-29T05:37:09;18.30;;;16.60;;
71910;SDS011;59783;52.232;5.170;2022-12-29T05:39:34;18.87;;;17.17;;
71910;SDS011;59783;52.232;5.170;2022-12-29T05:41:59;18.47;;;16.77;;
71910;SDS011;59783;52.232;5.170;2022-12-29T05:44:24;16.83;;;15.23;;
71910;SDS011;59783;52.232;5.170;2022-12-29T05:46:50;17.37;;;15.77;;
71910;SDS011;59783;52.232;5.170;2022-12-29T05:49:15;19.10;;;17.40;;
71910;SDS011;59783;52.232;5.170;2022-12-29T05:51:40;17.40;;;15.80;;
71910;SDS011;59783;52.232;5.170;2022-12-29T05:54:06;17.30;;;15.70;;
71910;SDS011;59783;52.232;5.170;2022-12-29T05:56:31;16.83;;;15.23;;
71910;SDS011;59783;52.232;5.170;2022-12-29T05:58:56;17.77;;;16.13;;
71910;SDS011;59783;52.232;5.170;2022-12-29T06:01:21;17.20;;;15.60;;
71910;SDS011;59783;52.232;5.170;2022-12-29T06:03:46;17.27;;;15.67;;
71910;SDS011;59783;52.232;5.170;2022-12-29T06:06:11;17.23;;;15.63;;
71910;SDS011;59783;52.232;5.170;2022-12-29T06:08:37;17.80;;;16.20;;
71910;SDS011;59783;52.232;5.170;2022-12-29T06:11:02;17.07;;;15.47;;
71910;SDS011;59783;52.232;5.170;2022-12-29T06:13:27;18.30;;;16.60;;
71910;SDS011;59783;52.232;5.170;2022-12-29T06:15:52;17.23;;;15.63;;
71910;SDS011;59783;52.232;5.170;2022-12-29T06:18:17;17.40;;;15.80;;
71910;SDS011;59783;52.232;5.170;2022-12-29T06:20:43;18.23;;;16.52;;
71910;SDS011;59783;52.232;5.170;2022-12-29T06:23:08;19.97;;;18.27;;
71910;SDS011;59783;52.232;5.170;2022-12-29T06:25:33;17.90;;;16.20;;
71910;SDS011;59783;52.232;5.170;2022-12-29T06:28:00;18.27;;;16.67;;
71910;SDS011;59783;52.232;5.170;2022-12-29T06:30:25;17.77;;;16.17;;
71910;SDS011;59783;52.232;5.170;2022-12-29T06:32:51;17.43;;;15.83;;
71910;SDS011;59783;52.232;5.170;2022-12-29T06:35:16;19.75;;;18.02;;
71910;SDS011;59783;52.232;5.170;2022-12-29T06:37:41;20.00;;;18.20;;
71910;SDS011;59783;52.232;5.170;2022-12-29T06:40:07;18.93;;;17.23;;
71910;SDS011;59783;52.232;5.170;2022-12-29T06:42:32;18.25;;;16.55;;
71910;SDS011;59783;52.232;5.170;2022-12-29T06:44:57;19.80;;;18.00;;
71910;SDS011;59783;52.232;5.170;2022-12-29T06:47:24;20.65;;;18.85;;
71910;SDS011;59783;52.232;5.170;2022-12-29T06:49:49;18.45;;;16.75;;
71910;SDS011;59783;52.232;5.170;2022-12-29T06:52:14;17.77;;;16.17;;
71910;SDS011;59783;52.232;5.170;2022-12-29T06:54:43;18.63;;;16.92;;
71910;SDS011;59783;52.232;5.170;2022-12-29T06:57:08;18.35;;;16.73;;
71910;SDS011;59783;52.232;5.170;2022-12-29T06:59:33;17.63;;;15.97;;
71910;SDS011;59783;52.232;5.170;2022-12-29T07:01:58;18.13;;;16.43;;
71910;SDS011;59783;52.232;5.170;2022-12-29T07:04:23;16.77;;;15.20;;
71910;SDS011;59783;52.232;5.170;2022-12-29T07:06:49;18.45;;;16.75;;
71910;SDS011;59783;52.232;5.170;2022-12-29T07:09:14;17.63;;;16.03;;
71910;SDS011;59783;52.232;5.170;2022-12-29T07:11:39;19.43;;;17.73;;
71910;SDS011;59783;52.232;5.170;2022-12-29T07:14:05;17.85;;;16.25;;
71910;SDS011;59783;52.232;5.170;2022-12-29T07:16:31;18.60;;;16.90;;
71910;SDS011;59783;52.232;5.170;2022-12-29T07:18:56;17.92;;;16.33;;
71910;SDS011;59783;52.232;5.170;2022-12-29T07:21:23;16.52;;;15.00;;
71910;SDS011;59783;52.232;5.170;2022-12-29T07:23:49;17.40;;;15.80;;
71910;SDS011;59783;52.232;5.170;2022-12-29T07:26:14;18.43;;;16.73;;
71910;SDS011;59783;52.232;5.170;2022-12-29T07:28:42;17.63;;;16.02;;
71910;SDS011;59783;52.232;5.170;2022-12-29T07:31:14;18.10;;;16.48;;
71910;SDS011;59783;52.232;5.170;2022-12-29T07:33:40;15.57;;;14.15;;
71910;SDS011;59783;52.232;5.170;2022-12-29T07:36:06;16.85;;;15.27;;
71910;SDS011;59783;52.232;5.170;2022-12-29T07:38:31;16.35;;;14.85;;
71910;SDS011;59783;52.232;5.170;2022-12-29T07:40:57;15.43;;;14.03;;
71910;SDS011;59783;52.232;5.170;2022-12-29T07:43:23;15.40;;;14.00;;
71910;SDS011;59783;52.232;5.170;2022-12-29T07:45:48;16.57;;;15.07;;
71910;SDS011;59783;52.232;5.170;2022-12-29T07:48:13;15.53;;;14.07;;
71910;SDS011;59783;52.232;5.170;2022-12-29T07:50:38;14.70;;;13.30;;
71910;SDS011;59783;52.232;5.170;2022-12-29T07:53:03;16.23;;;14.73;;
71910;SDS011;59783;52.232;5.170;2022-12-29T07:55:28;16.70;;;15.20;;
71910;SDS011;59783;52.232;5.170;2022-12-29T07:57:54;16.52;;;14.93;;
71910;SDS011;59783;52.232;5.170;2022-12-29T08:00:19;16.52;;;15.00;;
71910;SDS011;59783;52.232;5.170;2022-12-29T08:02:45;16.40;;;14.90;;
71910;SDS011;59783;52.232;5.170;2022-12-29T08:05:10;18.37;;;16.67;;
71910;SDS011;59783;52.232;5.170;2022-12-29T08:07:35;17.73;;;16.03;;
71910;SDS011;59783;52.232;5.170;2022-12-29T08:10:00;16.10;;;14.60;;
71910;SDS011;59783;52.232;5.170;2022-12-29T08:12:26;15.88;;;14.35;;
71910;SDS011;59783;52.232;5.170;2022-12-29T08:14:51;17.13;;;15.43;;
71910;SDS011;59783;52.232;5.170;2022-12-29T08:17:16;16.07;;;14.47;;
71910;SDS011;59783;52.232;5.170;2022-12-29T08:19:41;17.03;;;15.43;;
71910;SDS011;59783;52.232;5.170;2022-12-29T08:22:07;18.38;;;16.67;;
71910;SDS011;59783;52.232;5.170;2022-12-29T08:24:32;15.50;;;14.00;;
71910;SDS011;59783;52.232;5.170;2022-12-29T08:26:58;17.30;;;15.70;;
71910;SDS011;59783;52.232;5.170;2022-12-29T08:29:23;16.10;;;14.60;;
71910;SDS011;59783;52.232;5.170;2022-12-29T08:31:48;16.42;;;14.93;;
71910;SDS011;59783;52.232;5.170;2022-12-29T08:34:13;16.37;;;14.83;;
71910;SDS011;59783;52.232;5.170;2022-12-29T08:36:38;17.73;;;16.03;;
71910;SDS011;59783;52.232;5.170;2022-12-29T08:39:03;18.40;;;16.70;;
71910;SDS011;59783;52.232;5.170;2022-12-29T08:41:29;17.03;;;15.43;;
71910;SDS011;59783;52.232;5.170;2022-12-29T08:43:54;16.20;;;14.70;;
71910;SDS011;59783;52.232;5.170;2022-12-29T08:46:19;15.40;;;13.90;;
71910;SDS011;59783;52.232;5.170;2022-12-29T08:48:44;18.30;;;16.70;;
71910;SDS011;59783;52.232;5.170;2022-12-29T08:51:10;17.77;;;16.15;;
71910;SDS011;59783;52.232;5.170;2022-12-29T08:53:35;17.40;;;15.80;;
71910;SDS011;59783;52.232;5.170;2022-12-29T08:56:00;16.97;;;15.37;;
71910;SDS011;59783;52.232;5.170;2022-12-29T08:58:26;16.05;;;14.55;;
71910;SDS011;59783;52.232;5.170;2022-12-29T09:00:55;16.38;;;14.88;;
71910;SDS011;59783;52.232;5.170;2022-12-29T09:03:20;16.35;;;14.85;;
71910;SDS011;59783;52.232;5.170;2022-12-29T09:05:52;17.40;;;15.80;;
71910;SDS011;59783;52.232;5.170;2022-12-29T09:08:18;18.15;;;16.45;;
71910;SDS011;59783;52.232;5.170;2022-12-29T09:10:44;18.10;;;16.50;;
71910;SDS011;59783;52.232;5.170;2022-12-29T09:13:09;19.13;;;17.42;;
71910;SDS011;59783;52.232;5.170;2022-12-29T09:15:35;18.38;;;16.67;;
71910;SDS011;59783;52.232;5.170;2022-12-29T09:18:00;22.27;;;20.43;;
71910;SDS011;59783;52.232;5.170;2022-12-29T09:20:25;17.97;;;16.33;;
71910;SDS011;59783;52.232;5.170;2022-12-29T09:22:50;22.03;;;20.10;;
71910;SDS011;59783;52.232;5.170;2022-12-29T09:25:16;23.90;;;21.80;;
71910;SDS011;59783;52.232;5.170;2022-12-29T09:27:41;23.55;;;21.45;;
71910;SDS011;59783;52.232;5.170;2022-12-29T09:30:07;25.88;;;23.65;;
71910;SDS011;59783;52.232;5.170;2022-12-29T09:32:33;24.92;;;22.73;;
71910;SDS011;59783;52.232;5.170;2022-12-29T09:34:58;23.38;;;21.25;;
71910;SDS011;59783;52.232;5.170;2022-12-29T09:37:23;25.47;;;23.23;;
71910;SDS011;59783;52.232;5.170;2022-12-29T09:39:48;29.33;;;26.93;;
71910;SDS011;59783;52.232;5.170;2022-12-29T09:42:16;26.20;;;23.90;;
71910;SDS011;59783;52.232;5.170;2022-12-29T09:47:21;25.75;;;23.45;;
71910;SDS011;59783;52.232;5.170;2022-12-29T09:49:56;30.38;;;27.85;;
71910;SDS011;59783;52.232;5.170;2022-12-29T09:57:16;25.20;;;22.90;;
71910;SDS011;59783;52.232;5.170;2022-12-29T09:59:43;26.95;;;24.60;;
71910;SDS011;59783;52.232;5.170;2022-12-29T10:04:54;28.17;;;25.77;;
71910;SDS011;59783;52.232;5.170;2022-12-29T10:12:52;31.38;;;28.77;;
71910;SDS011;59783;52.232;5.170;2022-12-29T10:15:16;28.25;;;25.83;;
71910;SDS011;59783;52.232;5.170;2022-12-29T10:20:47;28.92;;;26.38;;
71910;SDS011;59783;52.232;5.170;2022-12-29T10:23:19;29.67;;;27.15;;
71910;SDS011;59783;52.232;5.170;2022-12-29T10:25:47;32.63;;;29.90;;
71910;SDS011;59783;52.232;5.170;2022-12-29T10:28:18;34.15;;;31.35;;
71910;SDS011;59783;52.232;5.170;2022-12-29T10:30:43;31.13;;;28.52;;
71910;SDS011;59783;52.232;5.170;2022-12-29T10:33:11;26.60;;;24.30;;
71910;SDS011;59783;52.232;5.170;2022-12-29T10:35:40;27.15;;;24.85;;
71910;SDS011;59783;52.232;5.170;2022-12-29T10:38:13;31.80;;;29.20;;
71910;SDS011;59783;52.232;5.170;2022-12-29T10:43:22;28.20;;;25.80;;
71910;SDS011;59783;52.232;5.170;2022-12-29T10:45:48;28.77;;;26.38;;
71910;SDS011;59783;52.232;5.170;2022-12-29T10:48:21;28.35;;;25.95;;
71910;SDS011;59783;52.232;5.170;2022-12-29T10:50:47;28.23;;;25.90;;
71910;SDS011;59783;52.232;5.170;2022-12-29T10:53:16;30.25;;;27.73;;
71910;SDS011;59783;52.232;5.170;2022-12-29T10:55:44;31.23;;;28.63;;
71910;SDS011;59783;52.232;5.170;2022-12-29T10:58:11;27.60;;;25.27;;
71910;SDS011;59783;52.232;5.170;2022-12-29T11:00:37;28.48;;;26.08;;
71910;SDS011;59783;52.232;5.170;2022-12-29T11:05:35;26.70;;;24.40;;
71910;SDS011;59783;52.232;5.170;2022-12-29T11:08:03;26.05;;;23.75;;
71910;SDS011;59783;52.232;5.170;2022-12-29T11:15:22;25.60;;;23.40;;
71910;SDS011;59783;52.232;5.170;2022-12-29T11:18:07;25.25;;;23.05;;
71910;SDS011;59783;52.232;5.170;2022-12-29T11:20:37;25.40;;;23.20;;
71910;SDS011;59783;52.232;5.170;2022-12-29T11:23:04;25.08;;;22.88;;
71910;SDS011;59783;52.232;5.170;2022-12-29T11:25:29;22.42;;;20.40;;
71910;SDS011;59783;52.232;5.170;2022-12-29T11:28:00;24.17;;;22.08;;
71910;SDS011;59783;52.232;5.170;2022-12-29T11:30:26;23.65;;;21.58;;
71910;SDS011;59783;52.232;5.170;2022-12-29T11:32:52;23.27;;;21.25;;
71910;SDS011;59783;52.232;5.170;2022-12-29T11:38:02;22.67;;;20.70;;
71910;SDS011;59783;52.232;5.170;2022-12-29T11:40:28;21.23;;;19.35;;
71910;SDS011;59783;52.232;5.170;2022-12-29T11:42:55;22.77;;;20.77;;
71910;SDS011;59783;52.232;5.170;2022-12-29T11:45:24;19.80;;;18.02;;
71910;SDS011;59783;52.232;5.170;2022-12-29T11:47:53;18.55;;;16.85;;
71910;SDS011;59783;52.232;5.170;2022-12-29T11:50:24;18.83;;;17.20;;
71910;SDS011;59783;52.232;5.170;2022-12-29T11:52:50;19.77;;;18.08;;
71910;SDS011;59783;52.232;5.170;2022-12-29T11:55:17;18.40;;;16.75;;
71910;SDS011;59783;52.232;5.170;2022-12-29T11:57:43;19.80;;;18.08;;
71910;SDS011;59783;52.232;5.170;2022-12-29T12:00:16;19.98;;;18.27;;
71910;SDS011;59783;52.232;5.170;2022-12-29T12:03:01;19.60;;;17.90;;
71910;SDS011;59783;52.232;5.170;2022-12-29T12:05:40;17.40;;;15.80;;
71910;SDS011;59783;52.232;5.170;2022-12-29T12:08:10;18.85;;;17.23;;
71910;SDS011;59783;52.232;5.170;2022-12-29T12:11:01;19.40;;;17.70;;
71910;SDS011;59783;52.232;5.170;2022-12-29T12:15:50;18.80;;;17.17;;
71910;SDS011;59783;52.232;5.170;2022-12-29T12:18:18;18.58;;;16.98;;
71910;SDS011;59783;52.232;5.170;2022-12-29T12:20:52;19.58;;;17.88;;
71910;SDS011;59783;52.232;5.170;2022-12-29T12:23:25;17.17;;;15.65;;
71910;SDS011;59783;52.232;5.170;2022-12-29T12:25:57;17.48;;;15.98;;
71910;SDS011;59783;52.232;5.170;2022-12-29T12:30:59;17.35;;;15.77;;
71910;SDS011;59783;52.232;5.170;2022-12-29T12:33:45;17.90;;;16.30;;
71910;SDS011;59783;52.232;5.170;2022-12-29T12:36:17;20.38;;;18.67;;
71910;SDS011;59783;52.232;5.170;2022-12-29T12:43:59;20.55;;;18.83;;
71910;SDS011;59783;52.232;5.170;2022-12-29T12:46:32;16.67;;;15.18;;
71910;SDS011;59783;52.232;5.170;2022-12-29T12:51:42;16.05;;;14.65;;
71910;SDS011;59783;52.232;5.170;2022-12-29T13:10:01;20.23;;;18.52;;
71910;SDS011;59783;52.232;5.170;2022-12-29T13:12:38;19.75;;;18.10;;
71910;SDS011;59783;52.232;5.170;2022-12-29T13:17:36;17.90;;;16.30;;
71910;SDS011;59783;52.232;5.170;2022-12-29T13:28:06;16.95;;;15.48;;
71910;SDS011;59783;52.232;5.170;2022-12-29T13:30:37;17.27;;;15.77;;
71910;SDS011;59783;52.232;5.170;2022-12-29T13:33:07;16.83;;;15.32;;
71910;SDS011;59783;52.232;5.170;2022-12-29T13:38:02;17.23;;;15.73;;
71910;SDS011;59783;52.232;5.170;2022-12-29T13:40:28;17.77;;;16.25;;
71910;SDS011;59783;52.232;5.170;2022-12-29T13:42:59;17.00;;;15.50;;
71910;SDS011;59783;52.232;5.170;2022-12-29T13:45:24;17.92;;;16.42;;
71910;SDS011;59783;52.232;5.170;2022-12-29T13:47:55;18.25;;;16.65;;
71910;SDS011;59783;52.232;5.170;2022-12-29T13:50:24;18.95;;;17.35;;
71910;SDS011;59783;52.232;5.170;2022-12-29T13:57:51;18.83;;;17.20;;
71910;SDS011;59783;52.232;5.170;2022-12-29T14:00:19;18.63;;;17.02;;
71910;SDS011;59783;52.232;5.170;2022-12-29T14:07:45;18.13;;;16.52;;
71910;SDS011;59783;52.232;5.170;2022-12-29T14:10:26;16.15;;;14.68;;
71910;SDS011;59783;52.232;5.170;2022-12-29T14:12:52;17.05;;;15.55;;
71910;SDS011;59783;52.232;5.170;2022-12-29T14:15:24;17.65;;;16.13;;
71910;SDS011;59783;52.232;5.170;2022-12-29T14:20:55;16.10;;;14.60;;
71910;SDS011;59783;52.232;5.170;2022-12-29T14:23:29;16.33;;;14.82;;
71910;SDS011;59783;52.232;5.170;2022-12-29T14:28:33;15.90;;;14.40;;
71910;SDS011;59783;52.232;5.170;2022-12-29T14:31:00;16.60;;;15.10;;
71910;SDS011;59783;52.232;5.170;2022-12-29T14:33:27;16.25;;;14.77;;
71910;SDS011;59783;52.232;5.170;2022-12-29T14:35:53;17.30;;;15.77;;
71910;SDS011;59783;52.232;5.170;2022-12-29T14:38:19;15.40;;;13.98;;
71910;SDS011;59783;52.232;5.170;2022-12-29T14:40:46;21.48;;;19.60;;
71910;SDS011;59783;52.232;5.170;2022-12-29T14:43:13;19.52;;;17.73;;
71910;SDS011;59783;52.232;5.170;2022-12-29T14:45:42;20.83;;;19.02;;
71910;SDS011;59783;52.232;5.170;2022-12-29T14:50:51;17.63;;;16.02;;
71910;SDS011;59783;52.232;5.170;2022-12-29T14:55:59;16.15;;;14.65;;
71910;SDS011;59783;52.232;5.170;2022-12-29T14:58:28;17.98;;;16.38;;
71910;SDS011;59783;52.232;5.170;2022-12-29T15:00:54;16.58;;;15.07;;
71910;SDS011;59783;52.232;5.170;2022-12-29T15:03:21;17.45;;;15.85;;
71910;SDS011;59783;52.232;5.170;2022-12-29T15:05:57;17.08;;;15.48;;
71910;SDS011;59783;52.232;5.170;2022-12-29T15:08:26;16.38;;;14.90;;
71910;SDS011;59783;52.232;5.170;2022-12-29T15:10:54;16.85;;;15.35;;
71910;SDS011;59783;52.232;5.170;2022-12-29T15:13:24;18.33;;;16.73;;
71910;SDS011;59783;52.232;5.170;2022-12-29T15:15:50;16.33;;;14.88;;
71910;SDS011;59783;52.232;5.170;2022-12-29T15:18:48;17.20;;;15.70;;
71910;SDS011;59783;52.232;5.170;2022-12-29T15:21:11;17.35;;;15.82;;
71910;SDS011;59783;52.232;5.170;2022-12-29T15:23:37;17.10;;;15.60;;
71910;SDS011;59783;52.232;5.170;2022-12-29T15:28:36;18.23;;;16.63;;
71910;SDS011;59783;52.232;5.170;2022-12-29T15:31:02;17.83;;;16.23;;
71910;SDS011;59783;52.232;5.170;2022-12-29T15:33:28;17.45;;;15.93;;
71910;SDS011;59783;52.232;5.170;2022-12-29T15:35:54;17.10;;;15.60;;
71910;SDS011;59783;52.232;5.170;2022-12-29T15:38:24;17.05;;;15.55;;
71910;SDS011;59783;52.232;5.170;2022-12-29T15:40:57;18.10;;;16.50;;
71910;SDS011;59783;52.232;5.170;2022-12-29T15:45:52;16.70;;;15.20;;
71910;SDS011;59783;52.232;5.170;2022-12-29T15:48:19;16.27;;;14.77;;
71910;SDS011;59783;52.232;5.170;2022-12-29T15:50:46;16.67;;;15.07;;
71910;SDS011;59783;52.232;5.170;2022-12-29T15:53:14;17.77;;;16.17;;
71910;SDS011;59783;52.232;5.170;2022-12-29T15:55:42;17.65;;;16.05;;
71910;SDS011;59783;52.232;5.170;2022-12-29T15:58:20;17.77;;;16.17;;
71910;SDS011;59783;52.232;5.170;2022-12-29T16:00:50;17.95;;;16.35;;
71910;SDS011;59783;52.232;5.170;2022-12-29T16:03:20;19.67;;;17.95;;
71910;SDS011;59783;52.232;5.170;2022-12-29T16:05:55;17.77;;;16.17;;
71910;SDS011;59783;52.232;5.170;2022-12-29T16:08:37;18.63;;;17.00;;
71910;SDS011;59783;52.232;5.170;2022-12-29T16:11:05;18.23;;;16.63;;
71910;SDS011;59783;52.232;5.170;2022-12-29T16:13:33;17.90;;;16.30;;
71910;SDS011;59783;52.232;5.170;2022-12-29T16:16:02;18.75;;;17.10;;
71910;SDS011;59783;52.232;5.170;2022-12-29T16:18:34;18.58;;;16.95;;
71910;SDS011;59783;52.232;5.170;2022-12-29T16:21:00;18.42;;;16.80;;
71910;SDS011;59783;52.232;5.170;2022-12-29T16:23:27;18.08;;;16.48;;
71910;SDS011;59783;52.232;5.170;2022-12-29T16:25:56;18.10;;;16.45;;
71910;SDS011;59783;52.232;5.170;2022-12-29T16:28:25;16.15;;;14.65;;
71910;SDS011;59783;52.232;5.170;2022-12-29T16:31:01;17.45;;;15.85;;
71910;SDS011;59783;52.232;5.170;2022-12-29T16:33:37;17.33;;;15.73;;
71910;SDS011;59783;52.232;5.170;2022-12-29T16:36:21;15.80;;;14.30;;